Time;durP1;ratioP1;P1;durP2;ratioP2;P2;SDS_P1;SDS_P2;PMS_P1;PMS_P2;Temp;Humidity;BMP_temperature;BMP_pressure;BME280_temperature;BME280_humidity;BME280_pressure;Samples;Min_cycle;Max_cycle;Signal;HPM_P1;HPM_P2
2022/11/05 00:11:12;;;;;;;0.00;0.00;;;6.90;99.90;;;;;;5055292;28;20045;-79
2022/11/05 00:19:06;;;;;;;0.03;0.03;;;6.90;99.90;;;;;;5055188;28;20044;-79
2022/11/05 00:27:01;;;;;;;0.00;0.00;;;6.90;99.90;;;;;;5057276;28;20080;-79
2022/11/05 00:29:27;;;;;;;0.00;0.00;;;6.90;99.90;;;;;;5076147;28;20087;-79
2022/11/05 00:31:52;;;;;;;0.00;0.00;;;6.90;99.90;;;;;;5092943;28;20044;-79
2022/11/05 00:34:18;;;;;;;0.00;0.00;;;6.90;99.90;;;;;;5075960;28;20051;-79
2022/11/05 00:36:44;;;;;;;0.10;0.00;;;6.80;99.90;;;;;;5076048;28;20044;-79
2022/11/05 00:39:09;;;;;;;0.00;0.00;;;6.80;99.90;;;;;;5092580;28;20040;-79
2022/11/05 00:41:35;;;;;;;0.00;0.00;;;6.80;99.90;;;;;;5076502;28;20052;-79
2022/11/05 00:46:45;;;;;;;0.43;0.20;;;6.80;99.90;;;;;;5092652;28;20095;-79
2022/11/05 00:49:28;;;;;;;0.22;0.00;;;6.80;99.90;;;;;;5076098;28;20056;-79
2022/11/05 00:54:39;;;;;;;0.10;0.10;;;6.70;99.90;;;;;;5093508;28;20131;-79
2022/11/05 00:57:04;;;;;;;0.10;0.00;;;6.80;99.90;;;;;;5092710;28;20090;-79
2022/11/05 00:59:30;;;;;;;0.90;0.30;;;6.70;99.90;;;;;;5093537;28;20040;-79
2022/11/05 01:01:56;;;;;;;0.00;0.00;;;6.80;99.90;;;;;;5076816;28;20456;-79
2022/11/05 01:04:21;;;;;;;0.68;0.20;;;6.80;99.90;;;;;;5076288;28;20494;-79
2022/11/05 01:06:47;;;;;;;0.00;0.00;;;6.90;99.90;;;;;;5076157;28;20388;-79
2022/11/05 01:09:13;;;;;;;0.10;0.10;;;6.90;99.90;;;;;;5092586;28;20388;-80
2022/11/05 01:11:40;;;;;;;0.00;0.00;;;7.00;99.90;;;;;;5092646;28;20450;-81
2022/11/05 01:14:12;;;;;;;0.00;0.00;;;7.00;99.90;;;;;;5075605;28;20136;-81
2022/11/05 01:16:39;;;;;;;0.00;0.00;;;7.10;99.90;;;;;;5093500;28;20048;-81
2022/11/05 01:19:06;;;;;;;0.43;0.43;;;7.10;99.90;;;;;;5075727;28;20040;-81
2022/11/05 01:21:32;;;;;;;0.00;0.00;;;7.10;99.90;;;;;;5092255;28;20051;-81
2022/11/05 01:23:57;;;;;;;0.10;0.00;;;7.10;99.90;;;;;;5092540;28;20079;-80
2022/11/05 01:26:23;;;;;;;0.00;0.00;;;7.10;99.90;;;;;;5092410;28;20037;-81
2022/11/05 01:28:54;;;;;;;0.00;0.00;;;7.10;99.90;;;;;;5092458;28;20094;-81
2022/11/05 01:31:20;;;;;;;0.00;0.00;;;7.10;99.90;;;;;;5093248;28;20341;-80
2022/11/05 01:33:46;;;;;;;0.20;0.20;;;7.00;99.90;;;;;;5075959;28;20505;-80
2022/11/05 01:36:11;;;;;;;0.00;0.00;;;7.10;99.90;;;;;;5096132;28;20048;-79
2022/11/05 01:38:37;;;;;;;0.00;0.00;;;7.10;99.90;;;;;;5096060;28;20051;-79
2022/11/05 01:41:03;;;;;;;0.00;0.00;;;7.00;99.90;;;;;;5079092;28;20044;-78
2022/11/05 01:43:46;;;;;;;0.00;0.00;;;7.00;99.90;;;;;;5079036;28;20048;-79
2022/11/05 01:46:11;;;;;;;0.10;0.10;;;7.00;99.90;;;;;;5079292;28;20044;-79
2022/11/05 01:48:38;;;;;;;0.10;0.10;;;6.90;99.90;;;;;;5095962;28;20051;-79
2022/11/05 01:51:12;;;;;;;0.10;0.05;;;7.00;99.90;;;;;;5078229;28;20106;-79
2022/11/05 01:54:08;;;;;;;0.00;0.00;;;6.90;99.90;;;;;;5095710;28;20048;-78
2022/11/05 01:57:00;;;;;;;0.35;0.00;;;6.90;99.90;;;;;;5078078;28;20055;-78
2022/11/05 01:59:29;;;;;;;0.00;0.00;;;6.90;99.90;;;;;;5079456;28;20040;-78
2022/11/05 02:01:55;;;;;;;0.00;0.00;;;7.00;99.90;;;;;;5078478;28;20407;-78
2022/11/05 02:04:29;;;;;;;0.00;0.00;;;6.90;99.90;;;;;;5095238;28;20499;-78
2022/11/05 02:06:55;;;;;;;0.00;0.00;;;6.90;99.90;;;;;;5078680;28;20055;-78
2022/11/05 02:09:29;;;;;;;0.00;0.00;;;6.90;99.90;;;;;;5078460;28;20044;-78
2022/11/05 02:11:54;;;;;;;0.00;0.00;;;6.90;99.90;;;;;;5078571;28;20083;-78
2022/11/05 02:14:20;;;;;;;0.90;0.40;;;6.80;99.90;;;;;;5094614;28;20133;-78
2022/11/05 02:17:11;;;;;;;0.15;0.00;;;6.80;99.90;;;;;;5095196;28;20093;-78
2022/11/05 02:20:09;;;;;;;0.00;0.00;;;6.80;99.90;;;;;;5078578;28;20048;-78
2022/11/05 02:23:12;;;;;;;0.00;0.00;;;6.80;99.90;;;;;;5078385;28;20193;-78
2022/11/05 02:25:56;;;;;;;0.00;0.00;;;6.80;99.90;;;;;;5095002;28;20551;-78
2022/11/05 02:28:59;;;;;;;0.10;0.10;;;6.70;99.90;;;;;;5077998;28;20051;-78
2022/11/05 02:31:50;;;;;;;0.00;0.00;;;6.80;99.90;;;;;;5095003;28;20436;-78
2022/11/05 02:34:44;;;;;;;0.00;0.00;;;6.70;99.90;;;;;;5094686;28;20093;-79
2022/11/05 02:37:16;;;;;;;0.00;0.00;;;6.70;99.90;;;;;;5077911;28;20131;-79
2022/11/05 02:40:00;;;;;;;0.08;0.00;;;6.70;99.90;;;;;;5078170;28;20052;-78
2022/11/05 02:42:44;;;;;;;0.00;0.00;;;6.70;99.90;;;;;;5077999;28;20103;-78
2022/11/05 02:45:32;;;;;;;0.52;0.30;;;6.70;99.90;;;;;;5094275;28;20040;-79
2022/11/05 02:48:10;;;;;;;0.05;0.00;;;6.70;99.90;;;;;;5094777;28;20036;-79
2022/11/05 02:50:41;;;;;;;0.00;0.00;;;6.70;99.90;;;;;;5077872;28;20056;-79
2022/11/05 02:53:18;;;;;;;0.00;0.00;;;6.70;99.90;;;;;;5077228;28;20083;-78
2022/11/05 02:55:58;;;;;;;0.00;0.00;;;6.70;99.90;;;;;;5077868;28;20044;-78
2022/11/05 02:58:27;;;;;;;0.00;0.00;;;6.70;99.90;;;;;;5078056;28;20060;-78
2022/11/05 03:00:54;;;;;;;1.55;0.68;;;6.60;99.90;;;;;;5077393;28;20094;-78
2022/11/05 03:03:19;;;;;;;0.00;0.00;;;6.60;99.90;;;;;;5077014;28;20488;-79
2022/11/05 03:06:09;;;;;;;0.00;0.00;;;6.60;99.90;;;;;;5094942;28;20051;-79
2022/11/05 03:08:35;;;;;;;0.00;0.00;;;6.60;99.90;;;;;;5094632;28;20067;-79
2022/11/05 03:11:10;;;;;;;0.00;0.00;;;6.60;99.90;;;;;;5093879;28;20480;-79
2022/11/05 03:13:58;;;;;;;0.00;0.00;;;6.50;99.90;;;;;;5077178;28;20086;-78
2022/11/05 03:16:44;;;;;;;0.00;0.00;;;6.50;99.90;;;;;;5077408;28;20503;-78
2022/11/05 03:19:27;;;;;;;0.00;0.00;;;6.50;99.90;;;;;;5077583;28;20106;-79
2022/11/05 03:22:00;;;;;;;0.00;0.00;;;6.50;99.90;;;;;;5093855;28;20054;-78
2022/11/05 03:24:32;;;;;;;3.92;0.20;;;6.50;99.90;;;;;;5077481;28;20139;-79
2022/11/05 03:27:19;;;;;;;0.00;0.00;;;6.50;99.90;;;;;;5094073;28;20043;-78
2022/11/05 03:30:06;;;;;;;0.00;0.00;;;6.50;99.90;;;;;;5093838;28;20499;-79
2022/11/05 03:32:37;;;;;;;0.55;0.08;;;6.40;99.90;;;;;;5093509;28;20039;-79
2022/11/05 03:35:24;;;;;;;0.00;0.00;;;6.40;99.90;;;;;;5093650;28;20544;-79
2022/11/05 03:37:55;;;;;;;0.00;0.00;;;6.40;99.90;;;;;;5093809;28;20040;-79
2022/11/05 03:40:23;;;;;;;0.30;0.30;;;6.40;99.90;;;;;;5093946;28;20036;-79
2022/11/05 03:42:53;;;;;;;0.00;0.00;;;6.40;99.90;;;;;;5076642;28;20131;-79
2022/11/05 03:45:27;;;;;;;0.00;0.00;;;6.60;99.90;;;;;;5076530;28;20040;-79
2022/11/05 03:47:57;;;;;;;7.90;0.32;;;6.50;99.90;;;;;;5093597;28;20051;-79
2022/11/05 03:50:31;;;;;;;0.08;0.08;;;6.40;99.90;;;;;;5093098;28;20412;-79
2022/11/05 03:53:02;;;;;;;0.38;0.38;;;6.50;99.90;;;;;;5076026;28;20060;-79
2022/11/05 03:55:37;;;;;;;0.80;0.00;;;6.40;99.90;;;;;;5076253;28;20444;-79
2022/11/05 03:58:04;;;;;;;0.00;0.00;;;6.40;99.90;;;;;;5076928;28;20044;-79
2022/11/05 04:00:30;;;;;;;0.00;0.00;;;6.40;99.90;;;;;;5093515;28;20044;-79
2022/11/05 04:02:56;;;;;;;0.00;0.00;;;6.40;99.90;;;;;;5093216;28;20044;-79
2022/11/05 04:05:22;;;;;;;0.32;0.32;;;6.40;99.90;;;;;;5092971;28;20052;-79
2022/11/05 04:13:24;;;;;;;0.00;0.00;;;6.30;99.90;;;;;;5093596;28;20115;-79
2022/11/05 04:18:36;;;;;;;0.00;0.00;;;6.30;99.90;;;;;;5092964;28;20109;-79
2022/11/05 04:26:31;;;;;;;0.00;0.00;;;6.20;99.90;;;;;;5092996;28;20048;-79
2022/11/05 04:31:41;;;;;;;0.00;0.00;;;6.20;99.90;;;;;;5092659;28;20070;-79
2022/11/05 04:34:07;;;;;;;0.00;0.00;;;6.20;99.90;;;;;;5075946;28;20132;-79
2022/11/05 04:36:32;;;;;;;0.00;0.00;;;6.20;99.90;;;;;;5076183;28;20089;-79
2022/11/05 04:38:58;;;;;;;0.00;0.00;;;6.10;99.90;;;;;;5092902;28;20475;-79
2022/11/05 04:41:24;;;;;;;0.00;0.00;;;6.10;99.90;;;;;;5092735;28;20387;-79
2022/11/05 04:43:49;;;;;;;0.00;0.00;;;6.10;99.90;;;;;;5092743;28;20048;-79
2022/11/05 04:46:15;;;;;;;0.00;0.00;;;6.10;99.90;;;;;;5076127;28;20056;-79
2022/11/05 04:48:41;;;;;;;0.00;0.00;;;6.10;99.90;;;;;;5076048;28;20087;-79
2022/11/05 04:51:06;;;;;;;0.00;0.00;;;6.10;99.90;;;;;;5075576;28;20515;-80
2022/11/05 04:53:32;;;;;;;0.00;0.00;;;6.10;99.90;;;;;;5092789;28;20059;-79
2022/11/05 04:56:36;;;;;;;0.20;0.20;;;6.10;99.90;;;;;;5092761;28;20052;-79
2022/11/05 04:59:02;;;;;;;0.00;0.00;;;6.10;99.90;;;;;;5038638;28;20135;-79
2022/11/05 05:01:27;;;;;;;0.00;0.00;;;6.10;99.90;;;;;;5054962;28;20143;-79
2022/11/05 05:03:53;;;;;;;0.00;0.00;;;6.10;99.90;;;;;;5053813;28;20142;-79
2022/11/05 05:06:20;;;;;;;0.00;0.00;;;6.00;99.90;;;;;;5054598;28;20139;-79
2022/11/05 05:08:47;;;;;;;0.00;0.00;;;6.00;99.90;;;;;;5055102;28;20416;-79
2022/11/05 05:11:15;;;;;;;0.40;0.40;;;6.00;99.90;;;;;;5042127;28;20070;-79
2022/11/05 05:13:40;;;;;;;0.10;0.10;;;6.00;99.90;;;;;;5058056;28;20040;-80
2022/11/05 05:16:08;;;;;;;0.00;0.00;;;6.00;99.90;;;;;;5041745;28;20052;-79
2022/11/05 05:18:34;;;;;;;0.00;0.00;;;6.00;99.90;;;;;;5041671;28;20041;-79
2022/11/05 05:23:47;;;;;;;0.00;0.00;;;6.00;99.90;;;;;;5057945;28;20075;-79
2022/11/05 05:26:13;;;;;;;2.67;0.10;;;6.00;99.90;;;;;;5058232;28;20048;-79
2022/11/05 05:28:38;;;;;;;0.00;0.00;;;5.90;99.90;;;;;;5058213;28;20048;-79
2022/11/05 05:31:04;;;;;;;0.00;0.00;;;5.90;99.90;;;;;;5079206;28;20060;-79
2022/11/05 05:33:29;;;;;;;0.00;0.00;;;5.90;99.90;;;;;;5078841;28;20555;-79
2022/11/05 05:35:59;;;;;;;0.00;0.00;;;5.90;99.90;;;;;;5095682;28;20059;-79
2022/11/05 05:38:24;;;;;;;0.00;0.00;;;5.90;99.90;;;;;;5078975;28;20043;-79
2022/11/05 05:40:51;;;;;;;0.00;0.00;;;6.00;99.90;;;;;;5095848;28;20063;-79
2022/11/05 05:43:16;;;;;;;0.00;0.00;;;5.90;99.90;;;;;;5095910;28;20044;-79
2022/11/05 05:45:42;;;;;;;0.00;0.00;;;5.90;99.90;;;;;;5078888;28;20074;-79
2022/11/05 05:48:08;;;;;;;1.35;0.43;;;5.90;99.90;;;;;;5095521;28;20388;-79
2022/11/05 05:50:34;;;;;;;0.35;0.35;;;5.90;99.90;;;;;;5095806;28;20109;-79
2022/11/05 05:53:00;;;;;;;0.00;0.00;;;5.90;99.90;;;;;;5095153;28;20484;-79
2022/11/05 05:55:25;;;;;;;0.00;0.00;;;5.80;99.90;;;;;;5078348;28;20047;-79
2022/11/05 05:57:51;;;;;;;0.00;0.00;;;5.90;99.90;;;;;;5095584;28;20055;-79
2022/11/05 06:00:17;;;;;;;0.00;0.00;;;6.00;99.90;;;;;;5078589;28;20051;-79
2022/11/05 06:02:42;;;;;;;0.75;0.38;;;5.80;99.90;;;;;;5077919;28;20138;-80
2022/11/05 06:05:08;;;;;;;0.00;0.00;;;5.90;99.90;;;;;;5078694;28;20051;-79
2022/11/05 06:07:34;;;;;;;0.10;0.00;;;6.00;99.90;;;;;;5078587;28;20059;-79
2022/11/05 06:09:59;;;;;;;0.20;0.00;;;5.90;99.90;;;;;;5095170;28;20044;-79
2022/11/05 06:12:27;;;;;;;0.00;0.00;;;5.90;99.90;;;;;;5095287;28;20048;-79
2022/11/05 06:14:53;;;;;;;0.00;0.00;;;5.90;99.90;;;;;;5078159;28;20093;-79
2022/11/05 06:17:18;;;;;;;0.00;0.00;;;5.90;99.90;;;;;;5094810;28;20122;-79
2022/11/05 06:19:44;;;;;;;0.00;0.00;;;6.00;99.90;;;;;;5078231;28;20051;-79
2022/11/05 06:22:10;;;;;;;0.00;0.00;;;5.90;99.90;;;;;;5095079;28;20531;-79
2022/11/05 06:24:35;;;;;;;0.00;0.00;;;5.80;99.90;;;;;;5095097;28;20097;-79
2022/11/05 06:27:01;;;;;;;0.10;0.10;;;5.90;99.90;;;;;;5094818;28;20475;-79
2022/11/05 06:29:27;;;;;;;0.05;0.00;;;5.90;99.90;;;;;;5077699;28;20036;-79
2022/11/05 06:31:52;;;;;;;0.00;0.00;;;6.00;99.90;;;;;;5078006;28;20048;-79
2022/11/05 06:34:18;;;;;;;0.00;0.00;;;6.00;99.90;;;;;;5094289;28;20456;-79
2022/11/05 06:36:44;;;;;;;2.72;0.45;;;6.00;99.90;;;;;;5077942;28;20476;-79
2022/11/05 06:39:12;;;;;;;0.60;0.10;;;6.10;99.90;;;;;;5077810;28;20040;-79
2022/11/05 06:41:38;;;;;;;0.55;0.20;;;6.10;99.90;;;;;;5094707;28;20067;-79
2022/11/05 06:44:04;;;;;;;0.63;0.40;;;6.20;99.90;;;;;;5077381;28;20476;-79
2022/11/05 06:46:29;;;;;;;0.00;0.00;;;6.20;99.90;;;;;;5077412;28;20050;-79
2022/11/05 06:48:55;;;;;;;0.00;0.00;;;6.20;99.90;;;;;;5094182;28;20040;-79
2022/11/05 06:51:21;;;;;;;0.00;0.00;;;6.20;99.90;;;;;;5094315;28;20137;-80
2022/11/05 06:53:46;;;;;;;0.00;0.00;;;6.20;99.90;;;;;;5077515;28;20046;-79
2022/11/05 06:56:12;;;;;;;0.00;0.00;;;6.20;99.90;;;;;;5093931;28;20048;-79
2022/11/05 06:58:37;;;;;;;0.00;0.00;;;6.30;99.90;;;;;;5077451;28;20060;-79
2022/11/05 07:01:09;;;;;;;0.00;0.00;;;6.30;99.90;;;;;;5077584;28;20058;-79
2022/11/05 07:03:36;;;;;;;0.00;0.00;;;6.30;99.90;;;;;;5077571;28;20414;-80
2022/11/05 07:06:03;;;;;;;0.00;0.00;;;6.30;99.90;;;;;;5077596;28;20497;-79
2022/11/05 07:08:36;;;;;;;0.10;0.10;;;6.30;99.90;;;;;;5077075;28;20511;-79
2022/11/05 07:11:03;;;;;;;0.00;0.00;;;6.40;99.90;;;;;;5077573;28;20044;-79
2022/11/05 07:13:29;;;;;;;0.00;0.00;;;6.30;99.90;;;;;;5093923;28;20418;-79
2022/11/05 07:15:54;;;;;;;0.00;0.00;;;6.40;99.90;;;;;;5093783;28;20142;-79
2022/11/05 07:18:20;;;;;;;0.00;0.00;;;6.30;99.90;;;;;;5093909;28;20079;-79
2022/11/05 07:20:46;;;;;;;0.00;0.00;;;6.30;99.90;;;;;;5094204;28;20059;-79
2022/11/05 07:23:13;;;;;;;0.22;0.22;;;6.50;99.90;;;;;;5093695;28;20036;-79
2022/11/05 07:25:39;;;;;;;0.08;0.08;;;6.40;99.90;;;;;;5076510;28;20051;-79
2022/11/05 07:28:05;;;;;;;0.20;0.00;;;6.40;99.90;;;;;;5092207;28;20040;-80
2022/11/05 07:30:32;;;;;;;0.00;0.00;;;6.40;99.90;;;;;;5092394;28;20044;-79
2022/11/05 07:32:58;;;;;;;0.00;0.00;;;6.40;99.90;;;;;;5093074;28;20506;-79
2022/11/05 07:35:24;;;;;;;0.00;0.00;;;6.40;99.90;;;;;;5093350;28;20040;-79
2022/11/05 07:37:52;;;;;;;0.00;0.00;;;6.50;99.90;;;;;;5093385;28;20144;-79
2022/11/05 07:40:19;;;;;;;0.00;0.00;;;6.50;99.90;;;;;;5093655;28;20044;-79
2022/11/05 07:42:48;;;;;;;0.00;0.00;;;6.60;99.90;;;;;;5093346;28;20052;-79
2022/11/05 07:45:14;;;;;;;0.00;0.00;;;6.60;99.90;;;;;;5093459;28;20518;-79
2022/11/05 07:48:02;;;;;;;0.00;0.00;;;6.70;99.90;;;;;;5076487;28;20086;-79
2022/11/05 07:50:33;;;;;;;0.00;0.00;;;6.90;99.90;;;;;;5076312;28;20480;-79
2022/11/05 07:53:05;;;;;;;0.00;0.00;;;7.00;99.90;;;;;;5075908;28;20090;-79
2022/11/05 07:55:32;;;;;;;0.00;0.00;;;7.00;99.90;;;;;;5076505;28;20044;-79
2022/11/05 07:57:58;;;;;;;0.00;0.00;;;7.00;99.90;;;;;;5076302;28;20051;-79
2022/11/05 08:00:25;;;;;;;0.10;0.10;;;7.10;99.90;;;;;;5076097;28;20055;-79
2022/11/05 08:03:01;;;;;;;0.73;0.10;;;7.10;99.90;;;;;;5092722;28;20130;-79
2022/11/05 08:05:28;;;;;;;0.00;0.00;;;7.10;99.90;;;;;;5092944;28;20046;-79
2022/11/05 08:07:55;;;;;;;0.00;0.00;;;7.20;99.90;;;;;;5093441;28;20098;-79
2022/11/05 08:10:23;;;;;;;0.00;0.00;;;7.30;99.90;;;;;;5076486;28;20510;-79
2022/11/05 08:12:49;;;;;;;0.00;0.00;;;7.50;99.90;;;;;;5092904;28;20391;-79
2022/11/05 08:15:14;;;;;;;0.00;0.00;;;7.60;99.90;;;;;;5075752;28;20598;-79
2022/11/05 08:17:40;;;;;;;0.00;0.00;;;7.80;99.90;;;;;;5092905;28;20126;-79
2022/11/05 08:20:07;;;;;;;0.00;0.00;;;8.00;99.90;;;;;;5092881;28;20055;-79
2022/11/05 08:22:32;;;;;;;0.10;0.00;;;8.40;99.90;;;;;;5092947;28;20565;-79
2022/11/05 08:24:58;;;;;;;0.10;0.00;;;9.10;99.90;;;;;;5093073;28;20202;-79
2022/11/05 08:27:24;;;;;;;0.00;0.00;;;9.80;99.90;;;;;;5092665;28;20040;-79
2022/11/05 08:29:49;;;;;;;0.43;0.17;;;10.80;99.90;;;;;;5076172;28;20059;-79
2022/11/05 08:32:15;;;;;;;0.00;0.00;;;11.60;99.90;;;;;;5076052;28;20101;-79
2022/11/05 08:34:41;;;;;;;0.00;0.00;;;12.70;99.90;;;;;;5075073;28;20120;-79
2022/11/05 08:37:07;;;;;;;0.00;0.00;;;13.50;99.90;;;;;;5092729;28;20480;-79
2022/11/05 08:39:32;;;;;;;0.00;0.00;;;13.50;99.90;;;;;;5092834;28;20051;-79
2022/11/05 08:41:58;;;;;;;0.10;0.03;;;13.90;99.90;;;;;;5075974;28;20496;-79
2022/11/05 08:44:24;;;;;;;0.00;0.00;;;14.50;99.90;;;;;;5078869;28;20055;-78
2022/11/05 08:46:50;;;;;;;0.00;0.00;;;15.20;99.90;;;;;;5096837;28;20040;-79
2022/11/05 08:49:15;;;;;;;0.00;0.00;;;15.80;99.90;;;;;;5096419;28;20140;-79
2022/11/05 08:51:43;;;;;;;0.00;0.00;;;16.30;99.90;;;;;;5096407;28;20070;-79
2022/11/05 08:54:09;;;;;;;0.00;0.00;;;16.60;99.90;;;;;;5096792;28;20059;-79
2022/11/05 08:56:35;;;;;;;0.00;0.00;;;17.10;99.90;;;;;;5093832;28;20048;-79
2022/11/05 08:59:00;;;;;;;0.22;0.00;;;17.40;99.90;;;;;;5078024;28;20476;-80
2022/11/05 09:01:26;;;;;;;0.00;0.00;;;17.80;99.90;;;;;;5076264;28;20036;-80
2022/11/05 09:03:52;;;;;;;0.00;0.00;;;18.10;99.90;;;;;;5094601;28;20059;-79
2022/11/05 09:06:21;;;;;;;0.10;0.00;;;18.40;99.90;;;;;;5093518;28;20124;-79
2022/11/05 09:08:46;;;;;;;0.00;0.00;;;18.70;99.30;;;;;;5077569;28;20060;-80
2022/11/05 09:11:12;;;;;;;0.00;0.00;;;18.80;98.80;;;;;;5093924;28;20067;-79
2022/11/05 09:13:38;;;;;;;0.20;0.15;;;18.90;95.70;;;;;;5077697;28;20116;-80
2022/11/05 09:16:04;;;;;;;0.00;0.00;;;19.30;97.90;;;;;;5076422;28;20079;-78
2022/11/05 09:18:30;;;;;;;0.00;0.00;;;19.50;97.50;;;;;;5077770;28;20055;-79
2022/11/05 09:20:55;;;;;;;0.00;0.00;;;19.70;96.80;;;;;;5094243;28;20198;-79
2022/11/05 09:23:21;;;;;;;0.10;0.10;;;19.60;95.70;;;;;;5094346;28;20040;-79
2022/11/05 09:25:47;;;;;;;0.13;0.13;;;19.80;96.50;;;;;;5093354;28;20056;-79
2022/11/05 09:28:21;;;;;;;0.00;0.00;;;19.90;95.10;;;;;;5093822;28;20055;-80
2022/11/05 09:30:49;;;;;;;0.28;0.00;;;19.80;94.60;;;;;;5077733;28;20137;-79
2022/11/05 09:33:17;;;;;;;0.10;0.10;;;19.80;93.70;;;;;;5077090;28;20052;-79
2022/11/05 09:35:43;;;;;;;0.08;0.08;;;19.00;93.90;;;;;;5093193;28;20052;-80
2022/11/05 09:38:08;;;;;;;0.00;0.00;;;18.40;95.70;;;;;;5077318;28;20054;-79
2022/11/05 09:40:45;;;;;;;0.00;0.00;;;18.60;97.50;;;;;;5093561;28;20126;-80
2022/11/05 09:43:18;;;;;;;0.00;0.00;;;18.90;96.40;;;;;;5077033;28;20056;-79
2022/11/05 09:45:47;;;;;;;0.00;0.00;;;19.30;97.10;;;;;;5093042;28;20515;-80
2022/11/05 09:48:16;;;;;;;0.00;0.00;;;19.80;95.50;;;;;;5077150;28;20064;-79
2022/11/05 09:50:44;;;;;;;0.00;0.00;;;20.10;95.50;;;;;;5093467;28;20086;-79
2022/11/05 09:53:16;;;;;;;0.85;0.17;;;20.30;93.80;;;;;;5093380;28;20052;-79
2022/11/05 09:55:50;;;;;;;0.10;0.00;;;20.20;93.00;;;;;;5092290;28;20040;-79
2022/11/05 09:58:34;;;;;;;0.00;0.00;;;20.30;94.00;;;;;;5077293;28;20083;-79
2022/11/05 10:01:01;;;;;;;0.03;0.00;;;20.40;93.80;;;;;;5091379;28;20081;-79
2022/11/05 10:03:28;;;;;;;0.00;0.00;;;20.50;93.10;;;;;;5091072;28;20392;-79
2022/11/05 10:06:04;;;;;;;0.00;0.00;;;20.60;91.80;;;;;;5075764;28;20056;-81
2022/11/05 10:08:41;;;;;;;0.00;0.00;;;20.70;93.00;;;;;;5076351;28;20048;-82
2022/11/05 10:11:15;;;;;;;0.00;0.00;;;20.50;92.10;;;;;;5093463;28;20044;-81
2022/11/05 10:13:51;;;;;;;0.00;0.00;;;20.40;92.30;;;;;;5076743;28;20060;-80
2022/11/05 10:16:30;;;;;;;0.05;0.00;;;20.40;91.50;;;;;;5092023;28;20112;-82
2022/11/05 10:19:03;;;;;;;0.00;0.00;;;20.60;93.50;;;;;;5073448;28;20118;-81
2022/11/05 10:21:29;;;;;;;0.00;0.00;;;20.50;92.00;;;;;;5073583;28;20128;-79
2022/11/05 10:23:54;;;;;;;0.00;0.00;;;20.70;92.80;;;;;;5058417;28;20135;-80
2022/11/05 10:26:25;;;;;;;0.00;0.00;;;20.80;91.70;;;;;;5058443;28;20088;-79
2022/11/05 10:28:51;;;;;;;0.25;0.08;;;20.50;92.20;;;;;;5074451;28;20127;-79
2022/11/05 10:31:20;;;;;;;0.17;0.17;;;20.10;91.50;;;;;;5057826;28;20052;-80
2022/11/05 10:33:47;;;;;;;0.00;0.00;;;20.00;92.70;;;;;;5074500;28;20079;-79
2022/11/05 10:36:25;;;;;;;0.00;0.00;;;19.90;92.90;;;;;;5057887;28;20051;-79
2022/11/05 10:38:51;;;;;;;0.00;0.00;;;19.80;93.60;;;;;;5058142;28;20055;-79
2022/11/05 10:41:31;;;;;;;0.10;0.10;;;19.70;92.90;;;;;;5057677;28;20400;-79
2022/11/05 10:44:16;;;;;;;0.00;0.00;;;19.70;93.20;;;;;;5057707;28;20080;-80
2022/11/05 10:47:05;;;;;;;0.25;0.15;;;19.20;93.50;;;;;;5019818;28;20057;-79
2022/11/05 10:49:55;;;;;;;0.00;0.00;;;18.90;94.40;;;;;;5019986;28;20110;-79
2022/11/05 10:52:41;;;;;;;0.20;0.20;;;18.40;96.80;;;;;;5019832;28;20053;-80
2022/11/05 10:55:19;;;;;;;0.00;0.00;;;18.10;97.70;;;;;;5020258;28;20051;-79
2022/11/05 10:57:46;;;;;;;0.00;0.00;;;17.70;99.00;;;;;;5052987;28;20139;-80
2022/11/05 11:00:18;;;;;;;0.00;0.00;;;17.20;99.20;;;;;;5019965;28;20111;-79
2022/11/05 11:02:50;;;;;;;0.25;0.20;;;16.50;99.90;;;;;;5036273;28;20075;-79
2022/11/05 11:05:34;;;;;;;0.00;0.00;;;16.10;99.90;;;;;;5036281;28;20053;-79
2022/11/05 11:08:27;;;;;;;0.00;0.00;;;15.60;99.90;;;;;;5035303;28;20048;-79
2022/11/05 11:10:57;;;;;;;0.00;0.00;;;15.30;99.90;;;;;;5033506;28;20520;-79
2022/11/05 11:13:25;;;;;;;0.47;0.15;;;15.00;99.90;;;;;;5036134;28;20120;-79
2022/11/05 11:15:52;;;;;;;0.00;0.00;;;14.90;99.90;;;;;;5036222;28;20049;-79
2022/11/05 11:18:35;;;;;;;0.00;0.00;;;14.80;99.90;;;;;;5019627;28;20570;-79
2022/11/05 11:21:26;;;;;;;0.00;0.00;;;14.60;99.90;;;;;;5019634;28;20040;-80
2022/11/05 11:24:01;;;;;;;0.00;0.00;;;14.50;99.90;;;;;;5053929;28;20056;-80
2022/11/05 11:26:33;;;;;;;0.00;0.00;;;14.50;99.90;;;;;;5073958;28;20044;-80
2022/11/05 11:29:23;;;;;;;0.00;0.00;;;14.40;99.90;;;;;;5073405;28;20045;-80
2022/11/05 11:31:53;;;;;;;0.00;0.00;;;14.50;99.90;;;;;;5056193;28;20053;-81
2022/11/05 11:34:32;;;;;;;0.25;0.15;;;14.60;99.90;;;;;;5073841;28;20051;-80
2022/11/05 11:37:08;;;;;;;0.00;0.00;;;14.80;99.90;;;;;;5093577;28;20127;-80
2022/11/05 11:39:36;;;;;;;0.05;0.00;;;15.30;99.90;;;;;;5076820;28;20134;-79
2022/11/05 11:42:08;;;;;;;0.00;0.00;;;15.80;99.90;;;;;;5076689;28;20438;-79
2022/11/05 11:44:40;;;;;;;0.05;0.05;;;15.70;99.90;;;;;;5093702;28;20048;-80
2022/11/05 11:47:14;;;;;;;0.00;0.00;;;15.40;99.90;;;;;;5093646;28;20108;-79
2022/11/05 11:49:50;;;;;;;0.10;0.00;;;15.10;99.90;;;;;;5076638;28;20048;-80
2022/11/05 11:52:20;;;;;;;0.00;0.00;;;14.80;99.90;;;;;;5093195;28;20048;-79
2022/11/05 11:54:46;;;;;;;1.25;0.38;;;14.40;99.90;;;;;;5092917;28;20074;-80
2022/11/05 11:57:20;;;;;;;0.10;0.10;;;14.20;99.90;;;;;;5076991;28;20044;-79
2022/11/05 11:59:46;;;;;;;0.45;0.20;;;14.20;99.90;;;;;;5093400;28;20047;-80
2022/11/05 12:02:15;;;;;;;0.00;0.00;;;14.10;99.90;;;;;;5092569;28;20052;-79
2022/11/05 12:04:59;;;;;;;1.10;0.28;;;14.00;99.90;;;;;;5093120;28;20047;-79
2022/11/05 12:07:37;;;;;;;0.00;0.00;;;13.90;99.90;;;;;;5076291;28;20066;-80
2022/11/05 12:10:20;;;;;;;0.00;0.00;;;13.80;99.90;;;;;;5076386;28;20138;-79
2022/11/05 12:13:17;;;;;;;0.00;0.00;;;13.70;99.90;;;;;;5093154;28;20051;-79
2022/11/05 12:15:54;;;;;;;0.00;0.00;;;13.60;99.90;;;;;;5092565;28;20503;-79
2022/11/05 12:18:52;;;;;;;0.00;0.00;;;13.50;99.90;;;;;;5076482;28;20048;-79
2022/11/05 12:21:50;;;;;;;0.00;0.00;;;13.50;99.90;;;;;;5037390;28;20147;-79
2022/11/05 12:24:25;;;;;;;0.00;0.00;;;13.40;99.90;;;;;;5054775;28;20040;-79
2022/11/05 12:27:10;;;;;;;;;;;13.30;99.90;;;;;;5055386;28;20087;-79
2022/11/05 12:29:56;;;;;;;0.00;0.00;;;13.20;99.90;;;;;;5038453;28;20023;-79
2022/11/05 12:32:31;;;;;;;0.00;0.00;;;13.10;99.90;;;;;;5055036;28;20411;-79
2022/11/05 12:35:24;;;;;;;0.00;0.00;;;13.10;99.90;;;;;;5054593;28;20041;-80
2022/11/05 12:38:10;;;;;;;0.10;0.10;;;13.10;99.90;;;;;;5054872;28;20392;-79
2022/11/05 12:40:44;;;;;;;0.00;0.00;;;13.10;99.90;;;;;;5054822;28;20090;-79
2022/11/05 12:43:16;;;;;;;0.00;0.00;;;13.10;99.90;;;;;;5054933;28;20052;-78
2022/11/05 12:46:00;;;;;;;0.00;0.00;;;13.10;99.90;;;;;;5054862;28;20532;-78
2022/11/05 12:48:40;;;;;;;0.00;0.00;;;13.10;99.90;;;;;;5054795;28;20048;-78
2022/11/05 12:51:08;;;;;;;0.00;0.00;;;13.10;99.90;;;;;;5054649;28;20048;-80
2022/11/05 12:53:44;;;;;;;0.00;0.00;;;13.10;99.90;;;;;;5054022;28;20052;-78
2022/11/05 12:56:44;;;;;;;0.00;0.00;;;13.10;99.90;;;;;;5054859;28;20044;-79
2022/11/05 12:59:22;;;;;;;0.05;0.03;;;13.00;99.90;;;;;;5088320;28;20063;-79
2022/11/05 13:01:57;;;;;;;0.10;0.00;;;12.90;99.90;;;;;;5075728;28;20491;-79
2022/11/05 13:04:29;;;;;;;0.20;0.20;;;12.90;99.90;;;;;;5076164;28;20116;-79
2022/11/05 13:06:56;;;;;;;0.00;0.00;;;13.00;99.90;;;;;;5075737;28;20052;-79
2022/11/05 13:09:28;;;;;;;0.05;0.05;;;12.90;99.90;;;;;;5092581;28;20052;-79
2022/11/05 13:11:58;;;;;;;0.00;0.00;;;12.90;99.90;;;;;;5075485;28;20411;-79
2022/11/05 13:14:34;;;;;;;0.00;0.00;;;12.90;99.90;;;;;;5092505;28;20037;-79
2022/11/05 13:17:12;;;;;;;0.00;0.00;;;13.00;99.90;;;;;;5075442;28;20058;-79
2022/11/05 13:20:04;;;;;;;0.00;0.00;;;12.90;99.90;;;;;;5075620;28;20069;-79
2022/11/05 13:22:37;;;;;;;0.00;0.00;;;12.90;99.90;;;;;;5075737;28;20128;-79
2022/11/05 13:25:22;;;;;;;0.40;0.20;;;12.90;99.90;;;;;;5075971;28;20052;-79
2022/11/05 13:28:25;;;;;;;0.00;0.00;;;12.90;99.90;;;;;;5075461;28;20056;-79
2022/11/05 13:30:54;;;;;;;0.22;0.22;;;12.80;99.90;;;;;;5094748;28;20506;-79
2022/11/05 13:33:26;;;;;;;0.00;0.00;;;12.80;99.90;;;;;;5078958;28;20446;-79
2022/11/05 13:39:16;;;;;;;0.00;0.00;;;12.70;99.90;;;;;;5095801;28;20044;-79
2022/11/05 13:41:42;;;;;;;0.77;0.37;;;12.70;99.90;;;;;;5079403;28;20047;-79
2022/11/05 13:44:26;;;;;;;4.50;0.65;;;12.60;99.90;;;;;;5095899;28;20777;-79
2022/11/05 13:47:13;;;;;;;0.63;0.63;;;12.60;99.90;;;;;;5095818;28;20048;-79
2022/11/05 13:50:16;;;;;;;0.10;0.05;;;12.50;99.90;;;;;;5078708;28;20063;-79
2022/11/05 13:53:13;;;;;;;0.20;0.20;;;12.50;99.90;;;;;;5095178;28;20063;-79
2022/11/05 13:56:09;;;;;;;0.17;0.00;;;12.50;99.90;;;;;;5078296;28;20055;-79
2022/11/05 13:59:12;;;;;;;0.00;0.00;;;12.40;99.90;;;;;;5078802;28;20055;-79
2022/11/05 14:01:52;;;;;;;0.10;0.10;;;12.40;99.90;;;;;;5095466;28;20044;-80
2022/11/05 14:04:36;;;;;;;0.00;0.00;;;12.30;99.90;;;;;;5095594;28;20500;-79
2022/11/05 14:07:14;;;;;;;1.05;0.35;;;12.30;99.90;;;;;;5095771;28;20044;-79